sensor_id;sensor_type;location;lat;lon;timestamp;pressure;altitude;pressure_sealevel;temperature;humidity
7170;BME280;3626;42.656;23.312;2023-11-19T00:00:06;94520.19;;;1.84;100.00
7170;BME280;3626;42.656;23.312;2023-11-19T00:00:17;94519.38;;;1.84;100.00
7170;BME280;3626;42.656;23.312;2023-11-19T00:00:24;94518.44;;;1.85;100.00
7170;BME280;3626;42.656;23.312;2023-11-19T00:00:30;94521.00;;;1.85;100.00
7170;BME280;3626;42.656;23.312;2023-11-19T00:00:36;94525.28;;;1.84;100.00
7170;BME280;3626;42.656;23.312;2023-11-19T00:00:41;94525.28;;;1.84;100.00
7170;BME280;3626;42.656;23.312;2023-11-19T00:00:47;94519.38;;;1.84;100.00
7170;BME280;3626;42.656;23.312;2023-11-19T00:00:53;94514.28;;;1.84;100.00
7170;BME280;3626;42.656;23.312;2023-11-19T00:00:59;94529.56;;;1.84;100.00
7170;BME280;3626;42.656;23.312;2023-11-19T00:01:05;94522.72;;;1.84;100.00
7170;BME280;3626;42.656;23.312;2023-11-19T00:01:11;94512.56;;;1.84;100.00
7170;BME280;3626;42.656;23.312;2023-11-19T00:01:17;94524.47;;;1.84;100.00
7170;BME280;3626;42.656;23.312;2023-11-19T00:01:22;94524.47;;;1.84;100.00
7170;BME280;3626;42.656;23.312;2023-11-19T00:01:28;94525.41;;;1.83;100.00
7170;BME280;3626;42.656;23.312;2023-11-19T00:01:34;94529.56;;;1.84;100.00
7170;BME280;3626;42.656;23.312;2023-11-19T00:01:40;94529.56;;;1.84;100.00
7170;BME280;3626;42.656;23.312;2023-11-19T00:01:45;94519.38;;;1.84;100.00
7170;BME280;3626;42.656;23.312;2023-11-19T00:01:52;94514.16;;;1.85;100.00
7170;BME280;3626;42.656;23.312;2023-11-19T00:01:58;94526.88;;;1.85;100.00
7170;BME280;3626;42.656;23.312;2023-11-19T00:02:04;94522.72;;;1.84;100.00
7170;BME280;3626;42.656;23.312;2023-11-19T00:02:13;94523.53;;;1.85;100.00
7170;BME280;3626;42.656;23.312;2023-11-19T00:02:19;94530.34;;;1.84;100.00
7170;BME280;3626;42.656;23.312;2023-11-19T00:02:25;94530.34;;;1.84;100.00
7170;BME280;3626;42.656;23.312;2023-11-19T00:02:30;94521.00;;;1.85;100.00
7170;BME280;3626;42.656;23.312;2023-11-19T00:02:36;94518.44;;;1.85;100.00
7170;BME280;3626;42.656;23.312;2023-11-19T00:02:42;94529.44;;;1.85;100.00
7170;BME280;3626;42.656;23.312;2023-11-19T00:02:48;94514.16;;;1.85;100.00
7170;BME280;3626;42.656;23.312;2023-11-19T00:02:53;94526.06;;;1.85;100.00
7170;BME280;3626;42.656;23.312;2023-11-19T00:02:59;94525.28;;;1.84;100.00
7170;BME280;3626;42.656;23.312;2023-11-19T00:03:05;94524.34;;;1.85;100.00
7170;BME280;3626;42.656;23.312;2023-11-19T00:03:11;94511.63;;;1.85;100.00
7170;BME280;3626;42.656;23.312;2023-11-19T00:03:18;94521.78;;;1.85;100.00
7170;BME280;3626;42.656;23.312;2023-11-19T00:03:24;94531.97;;;1.85;100.00
7170;BME280;3626;42.656;23.312;2023-11-19T00:03:29;94525.16;;;1.86;100.00
7170;BME280;3626;42.656;23.312;2023-11-19T00:03:35;94521.78;;;1.85;100.00
7170;BME280;3626;42.656;23.312;2023-11-19T00:03:41;94525.94;;;1.86;100.00
7170;BME280;3626;42.656;23.312;2023-11-19T00:03:47;94529.44;;;1.85;100.00
7170;BME280;3626;42.656;23.312;2023-11-19T00:03:53;94523.41;;;1.86;100.00
7170;BME280;3626;42.656;23.312;2023-11-19T00:03:59;94528.50;;;1.86;100.00
7170;BME280;3626;42.656;23.312;2023-11-19T00:04:05;94525.16;;;1.86;100.00
7170;BME280;3626;42.656;23.312;2023-11-19T00:04:11;94531.03;;;1.86;100.00
7170;BME280;3626;42.656;23.312;2023-11-19T00:04:16;94520.06;;;1.86;100.00
7170;BME280;3626;42.656;23.312;2023-11-19T00:04:22;94517.50;;;1.86;100.00
7170;BME280;3626;42.656;23.312;2023-11-19T00:04:28;94512.41;;;1.86;100.00
7170;BME280;3626;42.656;23.312;2023-11-19T00:04:36;94530.22;;;1.86;100.00
7170;BME280;3626;42.656;23.312;2023-11-19T00:04:42;94518.31;;;1.86;100.00
7170;BME280;3626;42.656;23.312;2023-11-19T00:04:48;94522.50;;;1.87;100.00
7170;BME280;3626;42.656;23.312;2023-11-19T00:04:53;94514.03;;;1.87;100.00
7170;BME280;3626;42.656;23.312;2023-11-19T00:04:59;94515.78;;;1.86;100.00
7170;BME280;3626;42.656;23.312;2023-11-19T00:05:05;94510.69;;;1.86;100.00
7170;BME280;3626;42.656;23.312;2023-11-19T00:05:14;94530.13;;;1.87;100.00
7170;BME280;3626;42.656;23.312;2023-11-19T00:05:20;94510.69;;;1.86;100.00
7170;BME280;3626;42.656;23.312;2023-11-19T00:05:25;94513.22;;;1.86;100.00
7170;BME280;3626;42.656;23.312;2023-11-19T00:05:32;94516.56;;;1.87;100.00
7170;BME280;3626;42.656;23.312;2023-11-19T00:05:38;94522.50;;;1.87;100.00
7170;BME280;3626;42.656;23.312;2023-11-19T00:05:45;94515.78;;;1.86;100.00
7170;BME280;3626;42.656;23.312;2023-11-19T00:05:51;94521.66;;;1.87;100.00
7170;BME280;3626;42.656;23.312;2023-11-19T00:05:56;94517.41;;;1.87;100.00
7170;BME280;3626;42.656;23.312;2023-11-19T00:06:02;94515.78;;;1.86;100.00
7170;BME280;3626;42.656;23.312;2023-11-19T00:06:09;94509.78;;;1.87;100.00
7170;BME280;3626;42.656;23.312;2023-11-19T00:06:16;94510.69;;;1.86;100.00
7170;BME280;3626;42.656;23.312;2023-11-19T00:06:22;94507.22;;;1.87;100.00
7170;BME280;3626;42.656;23.312;2023-11-19T00:06:28;94508.84;;;1.88;100.00
7170;BME280;3626;42.656;23.312;2023-11-19T00:06:33;94519.03;;;1.88;100.00
7170;BME280;3626;42.656;23.312;2023-11-19T00:06:39;94513.94;;;1.88;100.00
7170;BME280;3626;42.656;23.312;2023-11-19T00:06:45;94520.63;;;1.89;100.00
7170;BME280;3626;42.656;23.312;2023-11-19T00:06:50;94521.44;;;1.90;100.00
7170;BME280;3626;42.656;23.312;2023-11-19T00:06:57;94515.56;;;1.89;100.00
7170;BME280;3626;42.656;23.312;2023-11-19T00:07:07;94517.06;;;1.92;100.00
7170;BME280;3626;42.656;23.312;2023-11-19T00:07:15;94510.34;;;1.91;100.00
7170;BME280;3626;42.656;23.312;2023-11-19T00:07:21;94516.25;;;1.91;100.00
7170;BME280;3626;42.656;23.312;2023-11-19T00:07:27;94515.41;;;1.91;100.00
7170;BME280;3626;42.656;23.312;2023-11-19T00:07:32;94508.72;;;1.90;100.00
7170;BME280;3626;42.656;23.312;2023-11-19T00:07:38;94519.69;;;1.90;100.00
7170;BME280;3626;42.656;23.312;2023-11-19T00:07:46;94510.34;;;1.91;100.00
7170;BME280;3626;42.656;23.312;2023-11-19T00:07:53;94506.97;;;1.90;100.00
7170;BME280;3626;42.656;23.312;2023-11-19T00:07:59;94510.34;;;1.91;100.00
7170;BME280;3626;42.656;23.312;2023-11-19T00:08:05;94516.25;;;1.91;100.00
7170;BME280;3626;42.656;23.312;2023-11-19T00:08:11;94501.09;;;1.90;100.00
7170;BME280;3626;42.656;23.312;2023-11-19T00:08:17;94511.97;;;1.92;100.00
7170;BME280;3626;42.656;23.312;2023-11-19T00:08:23;94517.88;;;1.92;100.00
7170;BME280;3626;42.656;23.312;2023-11-19T00:08:30;94506.88;;;1.92;100.00
7170;BME280;3626;42.656;23.312;2023-11-19T00:08:35;94522.16;;;1.92;100.00
7170;BME280;3626;42.656;23.312;2023-11-19T00:08:41;94517.88;;;1.92;100.00
7170;BME280;3626;42.656;23.312;2023-11-19T00:08:48;94515.41;;;1.91;100.00
7170;BME280;3626;42.656;23.312;2023-11-19T00:08:55;94517.88;;;1.92;100.00
7170;BME280;3626;42.656;23.312;2023-11-19T00:09:01;94512.88;;;1.91;100.00
7170;BME280;3626;42.656;23.312;2023-11-19T00:09:09;94503.63;;;1.90;100.00
7170;BME280;3626;42.656;23.312;2023-11-19T00:09:15;94513.00;;;1.89;100.00
7170;BME280;3626;42.656;23.312;2023-11-19T00:09:22;94508.84;;;1.88;100.00
7170;BME280;3626;42.656;23.312;2023-11-19T00:09:27;94518.22;;;1.88;100.00
7170;BME280;3626;42.656;23.312;2023-11-19T00:09:33;94518.09;;;1.89;100.00
7170;BME280;3626;42.656;23.312;2023-11-19T00:09:42;94514.75;;;1.89;100.00
7170;BME280;3626;42.656;23.312;2023-11-19T00:09:49;94514.75;;;1.89;100.00
7170;BME280;3626;42.656;23.312;2023-11-19T00:09:55;94516.34;;;1.90;100.00
7170;BME280;3626;42.656;23.312;2023-11-19T00:10:01;94515.56;;;1.89;100.00
7170;BME280;3626;42.656;23.312;2023-11-19T00:10:09;94518.09;;;1.89;100.00
7170;BME280;3626;42.656;23.312;2023-11-19T00:10:17;94525.72;;;1.89;100.00
7170;BME280;3626;42.656;23.312;2023-11-19T00:10:24;94515.56;;;1.89;100.00
7170;BME280;3626;42.656;23.312;2023-11-19T00:10:30;94527.34;;;1.90;100.00
7170;BME280;3626;42.656;23.312;2023-11-19T00:10:36;94503.63;;;1.90;100.00
7170;BME280;3626;42.656;23.312;2023-11-19T00:10:41;94509.53;;;1.90;100.00
7170;BME280;3626;42.656;23.312;2023-11-19T00:10:47;94508.72;;;1.90;100.00
7170;BME280;3626;42.656;23.312;2023-11-19T00:10:53;94509.53;;;1.90;100.00
7170;BME280;3626;42.656;23.312;2023-11-19T00:10:59;94506.97;;;1.90;100.00
7170;BME280;3626;42.656;23.312;2023-11-19T00:11:05;94510.34;;;1.91;100.00
7170;BME280;3626;42.656;23.312;2023-11-19T00:11:10;94513.72;;;1.91;100.00
7170;BME280;3626;42.656;23.312;2023-11-19T00:11:16;94514.63;;;1.90;100.00
7170;BME280;3626;42.656;23.312;2023-11-19T00:11:22;94512.88;;;1.91;100.00
7170;BME280;3626;42.656;23.312;2023-11-19T00:11:28;94509.44;;;1.92;100.00
7170;BME280;3626;42.656;23.312;2023-11-19T00:11:33;94516.25;;;1.91;100.00
7170;BME280;3626;42.656;23.312;2023-11-19T00:11:39;94501.00;;;1.91;100.00
7170;BME280;3626;42.656;23.312;2023-11-19T00:11:45;94511.16;;;1.91;100.00
7170;BME280;3626;42.656;23.312;2023-11-19T00:11:50;94501.88;;;1.90;100.00
7170;BME280;3626;42.656;23.312;2023-11-19T00:11:56;94505.25;;;1.91;100.00
7170;BME280;3626;42.656;23.312;2023-11-19T00:12:04;94510.34;;;1.91;100.00
7170;BME280;3626;42.656;23.312;2023-11-19T00:12:11;94512.88;;;1.91;100.00
7170;BME280;3626;42.656;23.312;2023-11-19T00:12:16;94510.34;;;1.91;100.00
7170;BME280;3626;42.656;23.312;2023-11-19T00:12:22;94506.06;;;1.91;100.00
7170;BME280;3626;42.656;23.312;2023-11-19T00:12:28;94506.06;;;1.91;100.00
7170;BME280;3626;42.656;23.312;2023-11-19T00:12:34;94511.16;;;1.91;100.00
7170;BME280;3626;42.656;23.312;2023-11-19T00:12:43;94507.69;;;1.92;100.00
7170;BME280;3626;42.656;23.312;2023-11-19T00:12:49;94514.38;;;1.93;100.00
7170;BME280;3626;42.656;23.312;2023-11-19T00:12:55;94506.88;;;1.92;100.00
7170;BME280;3626;42.656;23.312;2023-11-19T00:13:02;94515.31;;;1.92;100.00
7170;BME280;3626;42.656;23.312;2023-11-19T00:13:08;94506.88;;;1.92;100.00
7170;BME280;3626;42.656;23.312;2023-11-19T00:13:15;94511.16;;;1.91;100.00
7170;BME280;3626;42.656;23.312;2023-11-19T00:13:21;94511.16;;;1.91;100.00
7170;BME280;3626;42.656;23.312;2023-11-19T00:13:28;94512.88;;;1.91;100.00
7170;BME280;3626;42.656;23.312;2023-11-19T00:13:34;94508.63;;;1.91;100.00
7170;BME280;3626;42.656;23.312;2023-11-19T00:13:39;94507.69;;;1.92;100.00
7170;BME280;3626;42.656;23.312;2023-11-19T00:13:46;94505.25;;;1.91;100.00
7170;BME280;3626;42.656;23.312;2023-11-19T00:13:52;94511.97;;;1.92;100.00
7170;BME280;3626;42.656;23.312;2023-11-19T00:13:59;94509.53;;;1.90;100.00
7170;BME280;3626;42.656;23.312;2023-11-19T00:14:05;94516.25;;;1.91;100.00
7170;BME280;3626;42.656;23.312;2023-11-19T00:14:13;94511.16;;;1.91;100.00
7170;BME280;3626;42.656;23.312;2023-11-19T00:14:19;94505.25;;;1.91;100.00
7170;BME280;3626;42.656;23.312;2023-11-19T00:14:25;94506.88;;;1.92;100.00
7170;BME280;3626;42.656;23.312;2023-11-19T00:14:31;94513.72;;;1.91;100.00
7170;BME280;3626;42.656;23.312;2023-11-19T00:14:36;94505.16;;;1.92;100.00
7170;BME280;3626;42.656;23.312;2023-11-19T00:14:42;94503.41;;;1.93;100.00
7170;BME280;3626;42.656;23.312;2023-11-19T00:14:48;94508.63;;;1.91;100.00
7170;BME280;3626;42.656;23.312;2023-11-19T00:14:55;94509.31;;;1.93;100.00
7170;BME280;3626;42.656;23.312;2023-11-19T00:15:00;94516.13;;;1.93;100.00
7170;BME280;3626;42.656;23.312;2023-11-19T00:15:07;94509.31;;;1.93;100.00
7170;BME280;3626;42.656;23.312;2023-11-19T00:15:17;94513.59;;;1.93;100.00
7170;BME280;3626;42.656;23.312;2023-11-19T00:15:23;94510.22;;;1.92;100.00
7170;BME280;3626;42.656;23.312;2023-11-19T00:15:29;94503.53;;;1.91;100.00
7170;BME280;3626;42.656;23.312;2023-11-19T00:15:36;94510.22;;;1.92;100.00
7170;BME280;3626;42.656;23.312;2023-11-19T00:15:42;94505.16;;;1.92;100.00
7170;BME280;3626;42.656;23.312;2023-11-19T00:15:47;94506.06;;;1.91;100.00
7170;BME280;3626;42.656;23.312;2023-11-19T00:15:53;94511.84;;;1.93;100.00
7170;BME280;3626;42.656;23.312;2023-11-19T00:15:59;94509.31;;;1.93;100.00
7170;BME280;3626;42.656;23.312;2023-11-19T00:16:06;94506.75;;;1.93;100.00
7170;BME280;3626;42.656;23.312;2023-11-19T00:16:12;94506.75;;;1.93;100.00
7170;BME280;3626;42.656;23.312;2023-11-19T00:16:18;94506.88;;;1.92;100.00
7170;BME280;3626;42.656;23.312;2023-11-19T00:16:24;94504.34;;;1.92;100.00
7170;BME280;3626;42.656;23.312;2023-11-19T00:16:29;94512.78;;;1.92;100.00
7170;BME280;3626;42.656;23.312;2023-11-19T00:16:37;94511.97;;;1.92;100.00
7170;BME280;3626;42.656;23.312;2023-11-19T00:16:43;94510.22;;;1.92;100.00
7170;BME280;3626;42.656;23.312;2023-11-19T00:16:49;94502.59;;;1.92;100.00
7170;BME280;3626;42.656;23.312;2023-11-19T00:16:56;94503.53;;;1.91;100.00
7170;BME280;3626;42.656;23.312;2023-11-19T00:17:27;94505.94;;;1.93;100.00
7170;BME280;3626;42.656;23.312;2023-11-19T00:17:33;94503.41;;;1.93;100.00
7170;BME280;3626;42.656;23.312;2023-11-19T00:17:38;94505.16;;;1.92;100.00
7170;BME280;3626;42.656;23.312;2023-11-19T00:17:47;94511.84;;;1.93;100.00
7170;BME280;3626;42.656;23.312;2023-11-19T00:17:53;94504.22;;;1.93;100.00
7170;BME280;3626;42.656;23.312;2023-11-19T00:17:59;94495.78;;;1.93;100.00
7170;BME280;3626;42.656;23.312;2023-11-19T00:18:05;94497.50;;;1.92;100.00
7170;BME280;3626;42.656;23.312;2023-11-19T00:18:10;94510.09;;;1.94;100.00
7170;BME280;3626;42.656;23.312;2023-11-19T00:18:16;94511.03;;;1.93;100.00
7170;BME280;3626;42.656;23.312;2023-11-19T00:18:22;94508.50;;;1.93;100.00
7170;BME280;3626;42.656;23.312;2023-11-19T00:18:27;94511.03;;;1.93;100.00
7170;BME280;3626;42.656;23.312;2023-11-19T00:18:33;94513.59;;;1.93;100.00
7170;BME280;3626;42.656;23.312;2023-11-19T00:18:39;94513.59;;;1.93;100.00
7170;BME280;3626;42.656;23.312;2023-11-19T00:18:45;94506.75;;;1.93;100.00
7170;BME280;3626;42.656;23.312;2023-11-19T00:18:50;94507.56;;;1.94;100.00
7170;BME280;3626;42.656;23.312;2023-11-19T00:18:57;94508.50;;;1.93;100.00
7170;BME280;3626;42.656;23.312;2023-11-19T00:19:03;94507.56;;;1.94;100.00
7170;BME280;3626;42.656;23.312;2023-11-19T00:19:09;94508.50;;;1.93;100.00
7170;BME280;3626;42.656;23.312;2023-11-19T00:19:15;94521.09;;;1.94;100.00
7170;BME280;3626;42.656;23.312;2023-11-19T00:19:22;94513.59;;;1.93;100.00
7170;BME280;3626;42.656;23.312;2023-11-19T00:19:27;94514.38;;;1.93;100.00
7170;BME280;3626;42.656;23.312;2023-11-19T00:19:33;94510.09;;;1.94;100.00
7170;BME280;3626;42.656;23.312;2023-11-19T00:19:39;94515.19;;;1.94;100.00
7170;BME280;3626;42.656;23.312;2023-11-19T00:19:45;94513.47;;;1.94;100.00
7170;BME280;3626;42.656;23.312;2023-11-19T00:19:51;94517.66;;;1.95;100.00
7170;BME280;3626;42.656;23.312;2023-11-19T00:19:57;94515.19;;;1.94;100.00
7170;BME280;3626;42.656;23.312;2023-11-19T00:20:04;94521.09;;;1.94;100.00
7170;BME280;3626;42.656;23.312;2023-11-19T00:20:11;94512.56;;;1.95;100.00
7170;BME280;3626;42.656;23.312;2023-11-19T00:20:18;94516.81;;;1.95;100.00
7170;BME280;3626;42.656;23.312;2023-11-19T00:20:24;94518.53;;;1.94;100.00
7170;BME280;3626;42.656;23.312;2023-11-19T00:20:30;94518.44;;;1.96;100.00
7170;BME280;3626;42.656;23.312;2023-11-19T00:20:36;94510.81;;;1.96;100.00
7170;BME280;3626;42.656;23.312;2023-11-19T00:20:42;94522.72;;;1.95;100.00
7170;BME280;3626;42.656;23.312;2023-11-19T00:20:50;94514.16;;;1.96;100.00
7170;BME280;3626;42.656;23.312;2023-11-19T00:20:55;94523.53;;;1.96;100.00
7170;BME280;3626;42.656;23.312;2023-11-19T00:21:01;94513.34;;;1.96;100.00
7170;BME280;3626;42.656;23.312;2023-11-19T00:21:07;94511.72;;;1.95;100.00
7170;BME280;3626;42.656;23.312;2023-11-19T00:21:13;94513.34;;;1.96;100.00
7170;BME280;3626;42.656;23.312;2023-11-19T00:21:19;94512.56;;;1.95;100.00
7170;BME280;3626;42.656;23.312;2023-11-19T00:21:25;94520.19;;;1.95;100.00
7170;BME280;3626;42.656;23.312;2023-11-19T00:21:34;94512.56;;;1.95;100.00
7170;BME280;3626;42.656;23.312;2023-11-19T00:21:39;94516.00;;;1.94;100.00
7170;BME280;3626;42.656;23.312;2023-11-19T00:21:46;94519.34;;;1.95;100.00
7170;BME280;3626;42.656;23.312;2023-11-19T00:21:52;94524.44;;;1.95;100.00
7170;BME280;3626;42.656;23.312;2023-11-19T00:21:58;94511.72;;;1.95;100.00
7170;BME280;3626;42.656;23.312;2023-11-19T00:22:07;94514.38;;;1.93;100.00
7170;BME280;3626;42.656;23.312;2023-11-19T00:22:13;94515.19;;;1.94;100.00
7170;BME280;3626;42.656;23.312;2023-11-19T00:22:19;94502.47;;;1.94;100.00
7170;BME280;3626;42.656;23.312;2023-11-19T00:22:26;94506.75;;;1.93;100.00
7170;BME280;3626;42.656;23.312;2023-11-19T00:22:33;94515.31;;;1.92;100.00
7170;BME280;3626;42.656;23.312;2023-11-19T00:22:40;94515.19;;;1.94;100.00
7170;BME280;3626;42.656;23.312;2023-11-19T00:22:47;94514.38;;;1.93;100.00
7170;BME280;3626;42.656;23.312;2023-11-19T00:22:53;94512.78;;;1.92;100.00
7170;BME280;3626;42.656;23.312;2023-11-19T00:22:59;94506.75;;;1.93;100.00
7170;BME280;3626;42.656;23.312;2023-11-19T00:23:06;94518.66;;;1.93;100.00
7170;BME280;3626;42.656;23.312;2023-11-19T00:23:13;94514.38;;;1.93;100.00
7170;BME280;3626;42.656;23.312;2023-11-19T00:23:18;94510.09;;;1.94;100.00
7170;BME280;3626;42.656;23.312;2023-11-19T00:23:24;94514.38;;;1.93;100.00
7170;BME280;3626;42.656;23.312;2023-11-19T00:23:30;94506.88;;;1.92;100.00
7170;BME280;3626;42.656;23.312;2023-11-19T00:23:36;94509.31;;;1.93;100.00
7170;BME280;3626;42.656;23.312;2023-11-19T00:23:41;94512.78;;;1.92;100.00
7170;BME280;3626;42.656;23.312;2023-11-19T00:23:47;94510.22;;;1.92;100.00
7170;BME280;3626;42.656;23.312;2023-11-19T00:23:53;94513.72;;;1.91;100.00
7170;BME280;3626;42.656;23.312;2023-11-19T00:23:59;94509.44;;;1.92;100.00
7170;BME280;3626;42.656;23.312;2023-11-19T00:24:05;94497.59;;;1.91;100.00
7170;BME280;3626;42.656;23.312;2023-11-19T00:24:13;94503.53;;;1.91;100.00
7170;BME280;3626;42.656;23.312;2023-11-19T00:24:21;94498.44;;;1.91;100.00
7170;BME280;3626;42.656;23.312;2023-11-19T00:24:27;94517.97;;;1.91;100.00
7170;BME280;3626;42.656;23.312;2023-11-19T00:24:33;94518.91;;;1.90;100.00
7170;BME280;3626;42.656;23.312;2023-11-19T00:24:39;94520.50;;;1.91;100.00
7170;BME280;3626;42.656;23.312;2023-11-19T00:24:45;94513.81;;;1.90;100.00
7170;BME280;3626;42.656;23.312;2023-11-19T00:24:51;94509.53;;;1.90;100.00
7170;BME280;3626;42.656;23.312;2023-11-19T00:24:56;94515.56;;;1.89;100.00
7170;BME280;3626;42.656;23.312;2023-11-19T00:25:03;94515.56;;;1.89;100.00
7170;BME280;3626;42.656;23.312;2023-11-19T00:25:09;94510.47;;;1.89;100.00
7170;BME280;3626;42.656;23.312;2023-11-19T00:25:15;94514.75;;;1.89;100.00
7170;BME280;3626;42.656;23.312;2023-11-19T00:25:21;94510.47;;;1.89;100.00
7170;BME280;3626;42.656;23.312;2023-11-19T00:25:27;94514.75;;;1.89;100.00
7170;BME280;3626;42.656;23.312;2023-11-19T00:25:32;94510.47;;;1.89;100.00
7170;BME280;3626;42.656;23.312;2023-11-19T00:25:38;94510.59;;;1.88;100.00
7170;BME280;3626;42.656;23.312;2023-11-19T00:25:44;94510.47;;;1.89;100.00
7170;BME280;3626;42.656;23.312;2023-11-19T00:25:50;94507.91;;;1.89;100.00
7170;BME280;3626;42.656;23.312;2023-11-19T00:25:55;94510.47;;;1.89;100.00
7170;BME280;3626;42.656;23.312;2023-11-19T00:26:01;94521.44;;;1.90;100.00
7170;BME280;3626;42.656;23.312;2023-11-19T00:26:07;94527.34;;;1.90;100.00
7170;BME280;3626;42.656;23.312;2023-11-19T00:26:13;94516.47;;;1.88;100.00
7170;BME280;3626;42.656;23.312;2023-11-19T00:26:19;94512.31;;;1.87;100.00
7170;BME280;3626;42.656;23.312;2023-11-19T00:26:25;94505.50;;;1.88;100.00
7170;BME280;3626;42.656;23.312;2023-11-19T00:26:31;94506.41;;;1.87;100.00
7170;BME280;3626;42.656;23.312;2023-11-19T00:26:36;94514.03;;;1.87;100.00
7170;BME280;3626;42.656;23.312;2023-11-19T00:26:42;94511.50;;;1.87;100.00
7170;BME280;3626;42.656;23.312;2023-11-19T00:26:48;94524.22;;;1.87;100.00
7170;BME280;3626;42.656;23.312;2023-11-19T00:26:54;94508.94;;;1.87;100.00
7170;BME280;3626;42.656;23.312;2023-11-19T00:27:00;94510.69;;;1.86;100.00
7170;BME280;3626;42.656;23.312;2023-11-19T00:27:06;94504.69;;;1.87;100.00
7170;BME280;3626;42.656;23.312;2023-11-19T00:27:13;94515.69;;;1.88;100.00
7170;BME280;3626;42.656;23.312;2023-11-19T00:27:19;94506.31;;;1.88;100.00
7170;BME280;3626;42.656;23.312;2023-11-19T00:27:25;94504.69;;;1.87;100.00
7170;BME280;3626;42.656;23.312;2023-11-19T00:27:30;94495.31;;;1.88;100.00
7170;BME280;3626;42.656;23.312;2023-11-19T00:27:36;94508.03;;;1.88;100.00
7170;BME280;3626;42.656;23.312;2023-11-19T00:27:42;94512.19;;;1.89;100.00
7170;BME280;3626;42.656;23.312;2023-11-19T00:27:50;94506.31;;;1.88;100.00
7170;BME280;3626;42.656;23.312;2023-11-19T00:27:56;94509.78;;;1.87;100.00
7170;BME280;3626;42.656;23.312;2023-11-19T00:28:02;94502.25;;;1.86;100.00
7170;BME280;3626;42.656;23.312;2023-11-19T00:28:08;94501.31;;;1.87;100.00
7170;BME280;3626;42.656;23.312;2023-11-19T00:28:14;94508.94;;;1.87;100.00
7170;BME280;3626;42.656;23.312;2023-11-19T00:28:21;94510.59;;;1.88;100.00
7170;BME280;3626;42.656;23.312;2023-11-19T00:28:26;94507.22;;;1.87;100.00
7170;BME280;3626;42.656;23.312;2023-11-19T00:28:32;94520.84;;;1.86;100.00
7170;BME280;3626;42.656;23.312;2023-11-19T00:28:38;94519.97;;;1.87;100.00
7170;BME280;3626;42.656;23.312;2023-11-19T00:28:44;94525.94;;;1.86;100.00
7170;BME280;3626;42.656;23.312;2023-11-19T00:28:50;94504.69;;;1.87;100.00
7170;BME280;3626;42.656;23.312;2023-11-19T00:28:55;94510.69;;;1.86;100.00
7170;BME280;3626;42.656;23.312;2023-11-19T00:29:01;94499.69;;;1.86;100.00
7170;BME280;3626;42.656;23.312;2023-11-19T00:29:07;94510.69;;;1.86;100.00
7170;BME280;3626;42.656;23.312;2023-11-19T00:29:13;94508.13;;;1.86;100.00
7170;BME280;3626;42.656;23.312;2023-11-19T00:29:19;94514.03;;;1.87;100.00
7170;BME280;3626;42.656;23.312;2023-11-19T00:29:25;94519.97;;;1.87;100.00
7170;BME280;3626;42.656;23.312;2023-11-19T00:29:31;94507.22;;;1.87;100.00
7170;BME280;3626;42.656;23.312;2023-11-19T00:29:36;94507.22;;;1.87;100.00
7170;BME280;3626;42.656;23.312;2023-11-19T00:29:42;94505.50;;;1.88;100.00
7170;BME280;3626;42.656;23.312;2023-11-19T00:29:51;94510.59;;;1.88;100.00
7170;BME280;3626;42.656;23.312;2023-11-19T00:29:58;94518.09;;;1.89;100.00
7170;BME280;3626;42.656;23.312;2023-11-19T00:30:05;94518.09;;;1.89;100.00
7170;BME280;3626;42.656;23.312;2023-11-19T00:30:12;94526.53;;;1.90;100.00
7170;BME280;3626;42.656;23.312;2023-11-19T00:30:19;94519.69;;;1.90;100.00
7170;BME280;3626;42.656;23.312;2023-11-19T00:30:25;94518.09;;;1.89;100.00
7170;BME280;3626;42.656;23.312;2023-11-19T00:30:31;94519.69;;;1.90;100.00
7170;BME280;3626;42.656;23.312;2023-11-19T00:30:37;94521.44;;;1.90;100.00
7170;BME280;3626;42.656;23.312;2023-11-19T00:30:42;94514.63;;;1.90;100.00
7170;BME280;3626;42.656;23.312;2023-11-19T00:30:48;94513.81;;;1.90;100.00
7170;BME280;3626;42.656;23.312;2023-11-19T00:30:54;94508.72;;;1.90;100.00
7170;BME280;3626;42.656;23.312;2023-11-19T00:31:00;94511.25;;;1.90;100.00
7170;BME280;3626;42.656;23.312;2023-11-19T00:31:06;94517.16;;;1.90;100.00
7170;BME280;3626;42.656;23.312;2023-11-19T00:31:12;94509.53;;;1.90;100.00
7170;BME280;3626;42.656;23.312;2023-11-19T00:31:18;94520.50;;;1.91;100.00
7170;BME280;3626;42.656;23.312;2023-11-19T00:31:23;94516.25;;;1.91;100.00
7170;BME280;3626;42.656;23.312;2023-11-19T00:31:29;94516.25;;;1.91;100.00
7170;BME280;3626;42.656;23.312;2023-11-19T00:31:35;94509.44;;;1.92;100.00
7170;BME280;3626;42.656;23.312;2023-11-19T00:31:41;94515.31;;;1.92;100.00
7170;BME280;3626;42.656;23.312;2023-11-19T00:31:47;94521.34;;;1.91;100.00
7170;BME280;3626;42.656;23.312;2023-11-19T00:31:53;94512.88;;;1.91;100.00
7170;BME280;3626;42.656;23.312;2023-11-19T00:31:58;94519.59;;;1.92;100.00
7170;BME280;3626;42.656;23.312;2023-11-19T00:32:05;94525.50;;;1.92;100.00
7170;BME280;3626;42.656;23.312;2023-11-19T00:32:10;94511.16;;;1.91;100.00
7170;BME280;3626;42.656;23.312;2023-11-19T00:32:17;94511.97;;;1.92;100.00
7170;BME280;3626;42.656;23.312;2023-11-19T00:32:22;94507.69;;;1.92;100.00
7170;BME280;3626;42.656;23.312;2023-11-19T00:32:28;94517.88;;;1.92;100.00
7170;BME280;3626;42.656;23.312;2023-11-19T00:32:34;94514.38;;;1.93;100.00
7170;BME280;3626;42.656;23.312;2023-11-19T00:32:42;94521.22;;;1.93;100.00
7170;BME280;3626;42.656;23.312;2023-11-19T00:32:48;94512.78;;;1.92;100.00
7170;BME280;3626;42.656;23.312;2023-11-19T00:32:54;94519.47;;;1.93;100.00
7170;BME280;3626;42.656;23.312;2023-11-19T00:32:59;94519.47;;;1.93;100.00
7170;BME280;3626;42.656;23.312;2023-11-19T00:33:05;94509.31;;;1.93;100.00
7170;BME280;3626;42.656;23.312;2023-11-19T00:33:11;94505.16;;;1.92;100.00
7170;BME280;3626;42.656;23.312;2023-11-19T00:33:16;94506.06;;;1.91;100.00
7170;BME280;3626;42.656;23.312;2023-11-19T00:33:22;94522.16;;;1.92;100.00
7170;BME280;3626;42.656;23.312;2023-11-19T00:33:28;94510.22;;;1.92;100.00
7170;BME280;3626;42.656;23.312;2023-11-19T00:33:34;94515.41;;;1.91;100.00
7170;BME280;3626;42.656;23.312;2023-11-19T00:33:40;94518.81;;;1.91;100.00